createdAt,value
2023-04-15T00:01:41.404Z,3.39
2023-04-15T00:04:09.438Z,3.50
2023-04-15T00:06:38.038Z,3.42
2023-04-15T00:09:05.975Z,3.37
2023-04-15T00:11:32.818Z,3.26
2023-04-15T00:14:00.322Z,3.29
2023-04-15T00:16:27.134Z,3.38
2023-04-15T00:18:55.955Z,3.34
2023-04-15T00:21:22.666Z,3.19
2023-04-15T00:23:50.306Z,3.36
2023-04-15T00:26:17.979Z,3.22
2023-04-15T00:28:47.290Z,3.22
2023-04-15T00:31:14.936Z,3.18
2023-04-15T00:33:41.755Z,3.10
2023-04-15T00:36:08.501Z,3.21
2023-04-15T00:38:38.669Z,3.20
2023-04-15T00:41:05.472Z,3.20
2023-04-15T00:43:32.233Z,3.16
2023-04-15T00:46:01.028Z,3.22
2023-04-15T00:48:28.547Z,3.20
2023-04-15T00:50:55.304Z,3.18
2023-04-15T00:53:22.891Z,3.13
2023-04-15T00:55:49.996Z,3.15
2023-04-15T00:58:16.993Z,3.19
2023-04-15T01:00:44.060Z,3.15
2023-04-15T01:03:11.096Z,3.25
2023-04-15T01:05:38.839Z,3.18
2023-04-15T01:08:07.951Z,3.19
2023-04-15T01:10:35.261Z,3.18
2023-04-15T01:13:03.313Z,3.16
2023-04-15T01:15:30.537Z,3.12
2023-04-15T01:18:02.598Z,3.17
2023-04-15T01:20:34.023Z,3.11
2023-04-15T01:23:01.307Z,3.04
2023-04-15T01:25:34.928Z,3.22
2023-04-15T01:28:01.856Z,3.17
2023-04-15T01:30:28.728Z,3.19
2023-04-15T01:32:57.439Z,3.23
2023-04-15T01:35:24.377Z,3.25
2023-04-15T01:37:51.826Z,3.31
2023-04-15T01:40:18.706Z,3.31
2023-04-15T01:42:45.445Z,3.24
2023-04-15T01:45:14.098Z,3.22
2023-04-15T01:47:41.099Z,3.18
2023-04-15T01:50:10.654Z,3.19
2023-04-15T01:52:37.554Z,3.27
2023-04-15T01:55:04.744Z,3.28
2023-04-15T01:57:31.711Z,3.33
2023-04-15T01:59:58.515Z,3.34
2023-04-15T02:02:25.450Z,3.37
2023-04-15T02:04:57.062Z,3.38
2023-04-15T02:07:25.479Z,3.41
2023-04-15T02:09:52.366Z,3.40
2023-04-15T02:12:21.075Z,3.35
2023-04-15T02:14:48.455Z,3.38
2023-04-15T02:17:15.822Z,3.28
2023-04-15T02:19:43.505Z,3.35
2023-04-15T02:22:10.238Z,3.44
2023-04-15T02:24:37.428Z,3.47
2023-04-15T02:27:04.255Z,3.51
2023-04-15T02:29:32.369Z,3.50
2023-04-15T02:32:01.210Z,3.45
2023-04-15T02:34:28.153Z,3.46
2023-04-15T02:36:57.639Z,3.35
2023-04-15T02:39:24.789Z,3.42
2023-04-15T02:41:51.552Z,3.34
2023-04-15T02:44:21.217Z,3.26
2023-04-15T02:46:50.024Z,3.32
2023-04-15T02:49:16.913Z,3.34
2023-04-15T02:51:43.849Z,3.34
2023-04-15T02:54:10.599Z,3.37
2023-04-15T02:56:37.449Z,3.39
2023-04-15T02:59:05.405Z,3.49
2023-04-15T03:01:32.197Z,3.54
2023-04-15T03:04:00.144Z,3.58
2023-04-15T03:06:27.045Z,3.68
2023-04-15T03:08:53.928Z,3.68
2023-04-15T03:11:22.117Z,3.58
2023-04-15T03:13:49.696Z,3.44
2023-04-15T03:16:36.848Z,3.43
2023-04-15T03:19:04.369Z,3.38
2023-04-15T03:21:33.923Z,3.43
2023-04-15T03:24:00.879Z,3.46
2023-04-15T03:26:32.343Z,3.52
2023-04-15T03:29:09.951Z,3.50
2023-04-15T03:31:37.605Z,3.56
2023-04-15T03:34:05.424Z,3.47
2023-04-15T03:36:32.851Z,3.42
2023-04-15T03:39:02.162Z,3.32
2023-04-15T03:41:29.531Z,3.35
2023-04-15T03:43:56.714Z,3.16
2023-04-15T03:46:23.510Z,3.19
2023-04-15T03:48:50.281Z,3.38
2023-04-15T03:51:17.027Z,3.43
2023-04-15T03:53:45.384Z,3.39
2023-04-15T03:56:12.114Z,3.34
2023-04-15T03:58:39.329Z,3.48
2023-04-15T04:01:06.162Z,3.48
2023-04-15T04:03:33.612Z,3.61
2023-04-15T04:06:02.325Z,3.63
2023-04-15T04:08:29.036Z,3.39
2023-04-15T04:10:55.943Z,3.31
2023-04-15T04:13:22.642Z,3.26
2023-04-15T04:15:49.610Z,3.35
2023-04-15T04:18:16.335Z,3.28
2023-04-15T04:20:43.216Z,3.30
2023-04-15T04:23:10.054Z,3.31
2023-04-15T04:25:41.355Z,3.45
2023-04-15T04:28:08.225Z,3.33
2023-04-15T04:30:36.444Z,3.32
2023-04-15T04:33:03.417Z,3.35
2023-04-15T04:35:31.376Z,3.25
2023-04-15T04:37:58.152Z,3.39
2023-04-15T04:40:24.936Z,3.41
2023-04-15T04:42:51.726Z,3.35
2023-04-15T04:45:18.592Z,3.45
2023-04-15T04:47:45.609Z,3.43
2023-04-15T04:50:12.576Z,3.44
2023-04-15T04:52:41.055Z,3.39
2023-04-15T04:55:08.137Z,3.42
2023-04-15T04:57:34.972Z,3.46
2023-04-15T05:00:05.967Z,3.32
2023-04-15T05:02:34.985Z,3.23
2023-04-15T05:05:02.957Z,3.28
2023-04-15T05:07:29.724Z,3.36
2023-04-15T05:09:56.954Z,3.36
2023-04-15T05:12:23.663Z,3.35
2023-04-15T05:14:50.482Z,3.33
2023-04-15T05:17:17.407Z,3.54
2023-04-15T05:19:44.164Z,3.64
2023-04-15T05:22:11.099Z,3.53
2023-04-15T05:24:37.862Z,3.57
2023-04-15T05:27:08.557Z,3.68
2023-04-15T05:29:35.283Z,3.69
2023-04-15T05:32:02.134Z,3.81
2023-04-15T05:34:32.545Z,3.87
2023-04-15T05:36:59.363Z,3.95
2023-04-15T05:39:26.933Z,3.94
2023-04-15T05:42:19.034Z,3.81
2023-04-15T05:44:46.997Z,3.84
2023-04-15T05:47:13.883Z,3.90
2023-04-15T05:49:40.989Z,3.95
2023-04-15T05:52:09.404Z,4.02
2023-04-15T05:54:36.416Z,3.97
2023-04-15T05:57:03.376Z,4.05
2023-04-15T05:59:30.190Z,4.07
2023-04-15T06:01:57.160Z,4.10
2023-04-15T06:04:24.506Z,4.14
2023-04-15T06:06:51.420Z,4.20
2023-04-15T06:09:18.231Z,4.25
2023-04-15T06:11:45.970Z,4.27
2023-04-15T06:14:12.747Z,4.31
2023-04-15T06:16:39.646Z,4.28
2023-04-15T06:19:06.543Z,4.32
2023-04-15T06:21:33.586Z,4.39
2023-04-15T06:24:00.288Z,4.44
2023-04-15T06:26:27.397Z,4.54
2023-04-15T06:28:54.295Z,4.54
2023-04-15T06:31:21.409Z,4.59
2023-04-15T06:33:48.390Z,4.55
2023-04-15T06:36:15.430Z,4.50
2023-04-15T06:38:42.364Z,4.57
2023-04-15T06:41:12.954Z,4.80
2023-04-15T06:44:05.202Z,4.91
2023-04-15T06:46:32.562Z,4.97
2023-04-15T06:48:59.381Z,4.85
2023-04-15T06:51:26.819Z,4.80
2023-04-15T06:53:53.738Z,4.92
2023-04-15T06:56:21.504Z,4.93
2023-04-15T06:58:48.277Z,4.91
2023-04-15T07:01:15.058Z,5.04
2023-04-15T07:03:41.952Z,5.02
2023-04-15T07:06:08.973Z,5.09
2023-04-15T07:08:35.700Z,5.09
2023-04-15T07:11:04.524Z,5.06
2023-04-15T07:13:32.698Z,5.19
2023-04-15T07:15:59.474Z,5.25
2023-04-15T07:18:26.312Z,5.32
2023-04-15T07:20:53.145Z,5.26
2023-04-15T07:23:19.879Z,5.31
2023-04-15T07:25:47.995Z,5.26
2023-04-15T07:28:14.704Z,5.27
2023-04-15T07:30:41.697Z,5.10
2023-04-15T07:33:08.682Z,5.09
2023-04-15T07:35:36.406Z,5.12
2023-04-15T07:38:03.241Z,5.09
2023-04-15T07:40:30.174Z,5.19
2023-04-15T07:42:58.420Z,5.39
2023-04-15T07:45:33.143Z,5.41
2023-04-15T07:48:04.035Z,5.41
2023-04-15T07:50:30.842Z,5.44
2023-04-15T07:52:58.524Z,5.45
2023-04-15T07:55:26.210Z,5.52
2023-04-15T07:57:55.457Z,5.59
2023-04-15T08:00:22.276Z,5.62
2023-04-15T08:02:49.713Z,5.71
2023-04-15T08:05:16.752Z,5.56
2023-04-15T08:07:43.889Z,5.54
2023-04-15T08:10:10.867Z,5.66
2023-04-15T08:12:37.862Z,5.60
2023-04-15T08:15:05.102Z,5.76
2023-04-15T08:17:31.898Z,5.85
2023-04-15T08:19:59.934Z,5.81
2023-04-15T08:22:27.448Z,5.87
2023-04-15T08:24:54.143Z,5.80
2023-04-15T08:27:21.083Z,5.82
2023-04-15T08:29:47.805Z,5.86
2023-04-15T08:32:14.656Z,5.91
2023-04-15T08:34:41.377Z,5.91
2023-04-15T08:37:08.178Z,5.87
2023-04-15T08:39:34.994Z,5.85
2023-04-15T08:42:03.163Z,5.80
2023-04-15T08:44:33.510Z,5.83
2023-04-15T08:47:07.773Z,5.85
2023-04-15T08:52:31.911Z,5.89
2023-04-15T08:54:59.989Z,5.82
2023-04-15T08:57:28.895Z,5.83
2023-04-15T08:59:58.953Z,5.90
2023-04-15T09:02:26.945Z,5.98
2023-04-15T09:04:55.189Z,6.01
2023-04-15T09:07:22.040Z,6.04
2023-04-15T09:09:48.989Z,6.09
2023-04-15T09:12:17.106Z,5.98
2023-04-15T09:14:46.344Z,5.95
2023-04-15T09:17:13.149Z,6.05
2023-04-15T09:19:41.905Z,6.12
2023-04-15T09:22:09.572Z,6.14
2023-04-15T09:24:40.951Z,6.14
2023-04-15T09:27:08.501Z,6.16
2023-04-15T09:29:35.325Z,6.26
2023-04-15T09:32:17.027Z,6.28
2023-04-15T09:34:43.905Z,6.22
2023-04-15T09:37:10.816Z,6.28
2023-04-15T09:39:52.876Z,6.32
2023-04-15T09:42:20.050Z,6.32
2023-04-15T09:44:47.341Z,6.23
2023-04-15T09:47:33.019Z,6.09
2023-04-15T09:50:01.662Z,6.09
2023-04-15T09:52:29.347Z,6.16
2023-04-15T09:55:00.287Z,6.17
2023-04-15T09:57:38.006Z,6.12
2023-04-15T10:00:06.640Z,6.28
2023-04-15T10:02:33.782Z,6.34
2023-04-15T10:05:01.856Z,6.34
2023-04-15T10:07:29.558Z,6.36
2023-04-15T10:09:59.003Z,6.44
2023-04-15T10:12:27.288Z,6.56
2023-04-15T10:15:04.040Z,6.55
2023-04-15T10:17:33.469Z,6.57
2023-04-15T10:20:02.200Z,6.50
2023-04-15T10:22:30.184Z,6.45
2023-04-15T10:24:57.206Z,6.59
2023-04-15T10:27:24.364Z,6.59
2023-04-15T10:29:55.922Z,6.50
2023-04-15T10:32:24.473Z,6.55
2023-04-15T10:34:54.320Z,6.44
2023-04-15T10:37:33.472Z,6.44
2023-04-15T10:40:00.201Z,6.41
2023-04-15T10:42:34.845Z,6.45
2023-04-15T10:45:01.689Z,6.58
2023-04-15T10:47:28.510Z,6.57
2023-04-15T10:50:01.581Z,6.48
2023-04-15T10:52:29.623Z,6.56
2023-04-15T10:55:27.093Z,6.64
2023-04-15T10:57:58.219Z,6.65
2023-04-15T11:00:27.979Z,6.65
2023-04-15T11:03:00.284Z,6.55
2023-04-15T11:05:39.972Z,6.54
2023-04-15T11:08:07.034Z,6.62
2023-04-15T11:10:33.738Z,6.63
2023-04-15T11:13:04.892Z,6.63
2023-04-15T11:15:42.895Z,6.65
2023-04-15T11:18:12.648Z,6.61
2023-04-15T11:20:41.325Z,6.68
2023-04-15T11:23:15.205Z,6.72
2023-04-15T11:25:43.606Z,6.71
2023-04-15T11:28:12.227Z,6.80
2023-04-15T11:30:40.301Z,6.77
2023-04-15T11:33:09.020Z,6.86
2023-04-15T11:35:36.554Z,6.91
2023-04-15T11:38:11.116Z,6.94
2023-04-15T11:40:38.932Z,7.03
2023-04-15T11:43:22.924Z,7.08
2023-04-15T11:45:59.107Z,7.03
2023-04-15T11:48:28.188Z,7.11
2023-04-15T11:51:02.073Z,7.13
2023-04-15T11:53:49.982Z,7.12
2023-04-15T11:56:19.456Z,7.06
2023-04-15T11:58:47.027Z,7.06
2023-04-15T12:01:14.350Z,7.06
2023-04-15T12:03:44.099Z,7.08
2023-04-15T12:06:17.115Z,7.13
2023-04-15T12:09:06.822Z,7.13
2023-04-15T12:11:44.622Z,7.17
2023-04-15T12:14:25.486Z,7.18
2023-04-15T12:17:05.100Z,7.16
2023-04-15T12:19:39.910Z,7.13
2023-04-15T12:22:17.915Z,7.15
2023-04-15T12:24:46.332Z,7.07
2023-04-15T12:27:14.916Z,6.96
2023-04-15T12:29:43.199Z,6.87
2023-04-15T12:32:15.492Z,6.89
2023-04-15T12:34:51.154Z,6.93
2023-04-15T12:37:21.949Z,6.94
2023-04-15T12:39:50.260Z,6.96
2023-04-15T12:42:18.706Z,6.99
2023-04-15T12:44:49.381Z,7.01
2023-04-15T12:47:16.660Z,7.01
2023-04-15T12:49:43.413Z,6.99
2023-04-15T12:52:10.425Z,7.02
2023-04-15T12:54:39.755Z,7.10
2023-04-15T12:57:07.679Z,7.18
2023-04-15T12:59:35.707Z,7.29
2023-04-15T13:02:02.695Z,7.29
2023-04-15T13:04:31.524Z,7.38
2023-04-15T13:06:58.444Z,7.46
2023-04-15T13:09:25.415Z,7.58
2023-04-15T13:11:53.040Z,7.58
2023-04-15T13:14:20.403Z,7.59
2023-04-15T13:16:47.117Z,7.58
2023-04-15T13:19:39.146Z,7.57
2023-04-15T13:22:07.639Z,7.58
2023-04-15T13:24:38.936Z,7.61
2023-04-15T13:27:06.410Z,7.66
2023-04-15T13:33:17.977Z,7.81
2023-04-15T13:35:47.936Z,7.72
2023-04-15T13:38:15.993Z,7.70
2023-04-15T13:41:07.876Z,7.66
2023-04-15T13:43:34.786Z,7.72
2023-04-15T13:46:01.697Z,7.64
2023-04-15T13:48:29.450Z,7.66
2023-04-15T13:50:56.303Z,7.66
2023-04-15T13:53:33.874Z,7.71
2023-04-15T13:56:09.073Z,7.67
2023-04-15T13:58:41.386Z,7.72
2023-04-15T14:01:08.385Z,7.73
2023-04-15T14:03:36.177Z,7.72
2023-04-15T14:06:03.641Z,7.71
2023-04-15T14:08:31.402Z,7.70
2023-04-15T14:10:58.513Z,7.76
2023-04-15T14:13:25.373Z,7.81
2023-04-15T14:15:52.492Z,7.85
2023-04-15T14:18:19.433Z,7.84
2023-04-15T14:20:46.719Z,7.80
2023-04-15T14:23:13.802Z,7.78
2023-04-15T14:25:41.579Z,7.77
2023-04-15T14:28:08.456Z,7.81
2023-04-15T14:30:35.680Z,7.84
2023-04-15T14:35:55.261Z,7.86
2023-04-15T14:38:22.128Z,7.91
2023-04-15T14:40:49.620Z,7.89
2023-04-15T14:43:17.308Z,7.91
2023-04-15T14:45:45.427Z,7.89
2023-04-15T14:48:13.583Z,7.88
2023-04-15T14:50:40.587Z,7.86
2023-04-15T14:53:07.708Z,7.84
2023-04-15T14:55:34.957Z,7.72
2023-04-15T14:58:01.847Z,7.68
2023-04-15T15:00:28.707Z,7.54
2023-04-15T15:02:55.683Z,7.47
2023-04-15T15:05:22.874Z,7.44
2023-04-15T15:07:50.247Z,7.39
2023-04-15T15:10:17.355Z,7.33
2023-04-15T15:15:57.973Z,7.36
2023-04-15T15:18:25.912Z,7.37
2023-04-15T15:20:52.986Z,7.40
2023-04-15T15:23:19.739Z,7.42
2023-04-15T15:25:46.743Z,7.43
2023-04-15T15:28:13.873Z,7.50
2023-04-15T15:30:40.679Z,7.48
2023-04-15T15:33:07.611Z,7.53
2023-04-15T15:35:35.075Z,7.58
2023-04-15T15:38:02.073Z,7.60
2023-04-15T15:40:28.875Z,7.64
2023-04-15T15:42:55.906Z,7.61
2023-04-15T15:45:22.828Z,7.55
2023-04-15T15:47:54.101Z,7.57
2023-04-15T15:50:21.533Z,7.54
2023-04-15T15:52:48.685Z,7.57
2023-04-15T15:55:16.465Z,7.59
2023-04-15T15:57:43.267Z,7.62
2023-04-15T16:00:12.416Z,7.61
2023-04-15T16:05:10.936Z,7.55
2023-04-15T16:07:37.772Z,7.51
2023-04-15T16:10:05.206Z,7.43
2023-04-15T16:12:33.847Z,7.37
2023-04-15T16:15:01.706Z,7.35
2023-04-15T16:17:28.713Z,7.32
2023-04-15T16:19:59.424Z,7.28
2023-04-15T16:22:27.852Z,7.24
2023-04-15T16:24:55.635Z,7.28
2023-04-15T16:27:22.566Z,7.21
2023-04-15T16:29:49.579Z,7.22
2023-04-15T16:32:16.982Z,7.21
2023-04-15T16:34:43.748Z,7.24
2023-04-15T16:37:11.687Z,7.25
2023-04-15T16:39:38.832Z,7.28
2023-04-15T16:42:06.172Z,7.34
2023-04-15T16:44:34.333Z,7.34
2023-04-15T16:47:01.285Z,7.34
2023-04-15T16:49:28.284Z,7.31
2023-04-15T16:51:55.602Z,7.29
2023-04-15T16:54:22.454Z,7.34
2023-04-15T16:56:49.651Z,7.35
2023-04-15T16:59:16.742Z,7.25
2023-04-15T17:01:43.771Z,7.24
2023-04-15T17:04:11.119Z,7.24
2023-04-15T17:06:39.615Z,7.15
2023-04-15T17:09:06.595Z,7.18
2023-04-15T17:11:35.123Z,7.18
2023-04-15T17:14:05.058Z,7.14
2023-04-15T17:16:33.911Z,7.01
2023-04-15T17:19:01.242Z,6.93
2023-04-15T17:21:29.896Z,6.95
2023-04-15T17:23:57.084Z,6.88
2023-04-15T17:26:24.591Z,6.88
2023-04-15T17:28:51.487Z,6.85
2023-04-15T17:31:18.625Z,6.81
2023-04-15T17:34:00.518Z,6.85
2023-04-15T17:36:34.716Z,6.82
2023-04-15T17:39:01.670Z,6.83
2023-04-15T17:41:29.102Z,6.75
2023-04-15T17:43:57.144Z,6.78
2023-04-15T17:46:24.444Z,6.83
2023-04-15T17:48:52.015Z,6.68
2023-04-15T17:51:19.094Z,6.56
2023-04-15T17:53:46.815Z,6.54
2023-04-15T17:56:14.325Z,6.50
2023-04-15T17:58:44.814Z,6.53
2023-04-15T18:01:12.241Z,6.44
2023-04-15T18:03:40.537Z,6.29
2023-04-15T18:06:08.441Z,6.12
2023-04-15T18:08:37.696Z,6.08
2023-04-15T18:11:04.950Z,6.15
2023-04-15T18:13:37.284Z,6.14
2023-04-15T18:16:05.803Z,6.16
2023-04-15T18:18:33.767Z,6.02
2023-04-15T18:21:01.342Z,6.03
2023-04-15T18:23:28.585Z,5.92
2023-04-15T18:25:55.967Z,5.73
2023-04-15T18:28:23.090Z,5.71
2023-04-15T18:30:50.867Z,5.67
2023-04-15T18:33:18.375Z,5.62
2023-04-15T18:35:45.370Z,5.48
2023-04-15T18:38:13.503Z,5.45
2023-04-15T18:40:41.871Z,5.40
2023-04-15T18:43:09.210Z,5.36
2023-04-15T18:45:40.832Z,5.34
2023-04-15T18:48:08.916Z,5.24
2023-04-15T18:50:35.812Z,5.19
2023-04-15T18:53:03.403Z,5.16
2023-04-15T18:55:33.185Z,5.12
2023-04-15T18:58:06.352Z,5.28
2023-04-15T19:00:36.979Z,5.47
2023-04-15T19:03:04.935Z,5.55
2023-04-15T19:05:34.078Z,5.72
2023-04-15T19:08:02.231Z,5.80
2023-04-15T19:10:30.016Z,5.82
2023-04-15T19:12:59.266Z,5.84
2023-04-15T19:15:29.751Z,5.84
2023-04-15T19:17:58.705Z,5.82
2023-04-15T19:20:52.106Z,5.82
2023-04-15T19:23:21.610Z,5.77
2023-04-15T19:25:50.197Z,5.73
2023-04-15T19:28:18.368Z,5.69
2023-04-15T19:30:46.865Z,5.66
2023-04-15T19:33:16.808Z,5.63
2023-04-15T19:35:45.053Z,5.61
2023-04-15T19:38:12.736Z,5.57
2023-04-15T19:43:37.060Z,5.35
2023-04-15T19:46:04.673Z,5.23
2023-04-15T19:48:31.564Z,5.00
2023-04-15T19:51:00.648Z,5.00
2023-04-15T19:53:30.199Z,4.87
2023-04-15T19:55:59.429Z,4.77
2023-04-15T19:58:26.908Z,4.78
2023-04-15T20:00:54.794Z,4.71
2023-04-15T20:03:22.564Z,4.74
2023-04-15T20:05:51.205Z,4.77
2023-04-15T20:08:19.280Z,4.64
2023-04-15T20:10:47.146Z,4.51
2023-04-15T20:13:14.820Z,4.44
2023-04-15T20:15:44.517Z,4.32
2023-04-15T20:18:16.609Z,4.43
2023-04-15T20:20:50.957Z,4.33
2023-04-15T20:23:49.835Z,4.29
2023-04-15T20:26:20.890Z,4.20
2023-04-15T20:28:49.764Z,4.17
2023-04-15T20:31:17.192Z,4.17
2023-04-15T20:33:48.733Z,4.18
2023-04-15T20:36:18.342Z,4.17
2023-04-15T20:38:45.741Z,4.15
2023-04-15T20:41:13.526Z,4.07
2023-04-15T20:43:43.989Z,4.05
2023-04-15T20:46:20.402Z,3.96
2023-04-15T20:48:48.777Z,3.94
2023-04-15T20:51:15.859Z,3.91
2023-04-15T20:53:42.713Z,3.93
2023-04-15T20:56:09.675Z,3.91
2023-04-15T20:58:36.475Z,3.99
2023-04-15T21:01:05.110Z,4.03
2023-04-15T21:03:32.279Z,4.00
2023-04-15T21:06:02.346Z,3.96
2023-04-15T21:08:30.651Z,3.95
2023-04-15T21:10:58.307Z,3.91
2023-04-15T21:13:26.175Z,3.86
2023-04-15T21:15:54.556Z,3.90
2023-04-15T21:18:23.441Z,3.89
2023-04-15T21:21:00.668Z,3.93
2023-04-15T21:23:33.293Z,3.97
2023-04-15T21:26:00.991Z,3.97
2023-04-15T21:28:28.649Z,4.01
2023-04-15T21:30:56.686Z,4.07
2023-04-15T21:33:24.137Z,4.15
2023-04-15T21:35:51.594Z,4.14
2023-04-15T21:38:18.451Z,4.11
2023-04-15T21:40:45.341Z,4.06
2023-04-15T21:43:13.508Z,4.09
2023-04-15T21:45:40.505Z,4.12
2023-04-15T21:48:08.521Z,4.12
2023-04-15T21:50:37.174Z,4.19
2023-04-15T21:53:05.128Z,4.24
2023-04-15T21:55:32.080Z,4.24
2023-04-15T21:57:59.012Z,4.27
2023-04-15T22:00:26.468Z,4.25
2023-04-15T22:02:53.525Z,4.29
2023-04-15T22:05:20.504Z,4.25
2023-04-15T22:07:47.341Z,4.31
2023-04-15T22:10:14.188Z,4.28
2023-04-15T22:12:41.488Z,4.31
2023-04-15T22:15:08.750Z,4.25
2023-04-15T22:17:35.615Z,4.28
2023-04-15T22:20:04.099Z,4.28
2023-04-15T22:22:44.173Z,4.24
2023-04-15T22:25:12.348Z,4.22
2023-04-15T22:27:39.489Z,4.21
2023-04-15T22:30:06.996Z,4.09
2023-04-15T22:32:34.500Z,4.15
2023-04-15T22:35:01.727Z,4.08
2023-04-15T22:37:28.587Z,4.11
2023-04-15T22:39:55.322Z,4.09
2023-04-15T22:42:23.154Z,4.07
2023-04-15T22:44:51.654Z,4.07
2023-04-15T22:47:19.466Z,4.09
2023-04-15T22:49:46.934Z,4.07
2023-04-15T22:52:23.299Z,4.05
2023-04-15T22:54:56.615Z,4.02
2023-04-15T23:00:39.358Z,3.99
2023-04-15T23:03:06.405Z,4.01
2023-04-15T23:05:34.345Z,4.06
2023-04-15T23:08:01.239Z,4.15
2023-04-15T23:10:31.669Z,4.32
2023-04-15T23:12:58.544Z,4.58
2023-04-15T23:15:25.703Z,4.75
2023-04-15T23:17:54.077Z,4.87
2023-04-15T23:20:21.551Z,4.93
2023-04-15T23:22:48.298Z,4.95
2023-04-15T23:25:16.058Z,4.94
2023-04-15T23:27:42.775Z,4.97
2023-04-15T23:30:09.665Z,5.01
2023-04-15T23:32:36.467Z,5.03
2023-04-15T23:35:03.576Z,5.08
2023-04-15T23:37:30.979Z,5.14
2023-04-15T23:39:57.783Z,5.15
2023-04-15T23:42:24.551Z,5.18
2023-04-15T23:44:51.636Z,5.19
2023-04-15T23:47:18.587Z,5.21
2023-04-15T23:49:46.164Z,5.23
2023-04-15T23:52:12.954Z,5.26
2023-04-15T23:54:40.514Z,5.21
2023-04-15T23:57:07.368Z,5.16
2023-04-15T23:59:34.566Z,5.09
